createdAt,value
2023-01-08T00:01:59.717Z,100.00
2023-01-08T00:07:01.510Z,100.00
2023-01-08T00:12:03.150Z,100.00
2023-01-08T00:17:05.855Z,100.00
2023-01-08T00:22:07.559Z,100.00
2023-01-08T00:27:09.205Z,100.00
2023-01-08T00:32:10.836Z,100.00
2023-01-08T00:37:12.493Z,100.00
2023-01-08T00:42:14.136Z,100.00
2023-01-08T00:47:15.788Z,100.00
2023-01-08T00:52:17.427Z,100.00
2023-01-08T00:57:19.060Z,100.00
2023-01-08T01:02:20.750Z,100.00
2023-01-08T01:07:22.624Z,100.00
2023-01-08T01:12:24.349Z,100.00
2023-01-08T01:17:25.973Z,100.00
2023-01-08T01:22:27.621Z,100.00
2023-01-08T01:27:29.247Z,100.00
2023-01-08T01:32:31.089Z,100.00
2023-01-08T01:37:32.969Z,100.00
2023-01-08T01:42:40.374Z,100.00
2023-01-08T01:47:42.528Z,100.00
2023-01-08T01:53:03.753Z,100.00
2023-01-08T01:58:13.707Z,100.00
2023-01-08T02:03:16.869Z,100.00
2023-01-08T02:08:28.976Z,100.00
2023-01-08T02:13:34.931Z,100.00
2023-01-08T02:18:48.370Z,100.00
2023-01-08T02:24:03.177Z,100.00
2023-01-08T02:29:08.082Z,100.00
2023-01-08T02:34:10.928Z,100.00
2023-01-08T02:39:23.869Z,100.00
2023-01-08T02:44:37.675Z,100.00
2023-01-08T02:49:42.819Z,100.00
2023-01-08T02:54:46.810Z,100.00
2023-01-08T02:59:50.302Z,100.00
2023-01-08T03:04:57.267Z,100.00
2023-01-08T03:09:59.466Z,100.00
2023-01-08T03:15:06.244Z,100.00
2023-01-08T03:20:11.934Z,100.00
2023-01-08T03:25:15.532Z,100.00
2023-01-08T03:30:19.876Z,100.00
2023-01-08T03:35:24.139Z,100.00
2023-01-08T03:40:37.897Z,100.00
2023-01-08T03:45:46.590Z,100.00
2023-01-08T03:50:49.060Z,100.00
2023-01-08T03:55:50.693Z,100.00
2023-01-08T04:00:52.797Z,100.00
2023-01-08T04:05:54.430Z,100.00
2023-01-08T04:10:56.088Z,100.00
2023-01-08T04:15:58.315Z,100.00
2023-01-08T04:21:00.744Z,100.00
2023-01-08T04:26:08.696Z,100.00
2023-01-08T04:31:10.689Z,100.00
2023-01-08T04:36:12.455Z,100.00
2023-01-08T04:41:14.080Z,100.00
2023-01-08T04:46:15.772Z,100.00
2023-01-08T04:51:17.461Z,100.00
2023-01-08T04:56:19.102Z,100.00
2023-01-08T05:01:23.536Z,100.00
2023-01-08T05:06:26.000Z,100.00
2023-01-08T05:11:27.942Z,100.00
2023-01-08T05:16:29.553Z,100.00
2023-01-08T05:21:31.222Z,100.00
2023-01-08T05:26:32.997Z,100.00
2023-01-08T05:31:35.296Z,100.00
2023-01-08T05:36:36.916Z,100.00
2023-01-08T05:41:38.527Z,100.00
2023-01-08T05:46:40.255Z,100.00
2023-01-08T05:51:41.901Z,100.00
2023-01-08T05:56:46.393Z,100.00
2023-01-08T06:01:48.094Z,100.00
2023-01-08T06:06:49.725Z,100.00
2023-01-08T06:11:51.448Z,100.00
2023-01-08T06:16:53.092Z,100.00
2023-01-08T06:21:54.731Z,100.00
2023-01-08T06:26:56.422Z,100.00
2023-01-08T06:31:58.043Z,100.00
2023-01-08T06:36:59.631Z,100.00
2023-01-08T06:42:01.281Z,100.00
2023-01-08T06:47:02.890Z,100.00
2023-01-08T06:52:04.564Z,100.00
2023-01-08T06:57:06.167Z,100.00
2023-01-08T07:02:13.729Z,100.00
2023-01-08T07:07:15.544Z,100.00
2023-01-08T07:12:17.139Z,100.00
2023-01-08T07:17:18.773Z,100.00
2023-01-08T07:22:21.193Z,100.00
2023-01-08T07:27:22.856Z,100.00
2023-01-08T07:32:24.570Z,100.00
2023-01-08T07:37:26.650Z,100.00
2023-01-08T07:42:28.537Z,100.00
2023-01-08T07:47:30.267Z,100.00
2023-01-08T07:52:31.891Z,100.00
2023-01-08T07:57:33.474Z,100.00
2023-01-08T08:02:36.004Z,100.00
2023-01-08T08:07:37.704Z,100.00
2023-01-08T08:12:39.304Z,100.00
2023-01-08T08:17:45.049Z,100.00
2023-01-08T08:22:46.673Z,100.00
2023-01-08T08:27:48.317Z,100.00
2023-01-08T08:32:49.918Z,100.00
2023-01-08T08:37:51.526Z,100.00
2023-01-08T08:43:01.265Z,100.00
2023-01-08T08:48:06.109Z,100.00
2023-01-08T08:53:08.037Z,100.00
2023-01-08T08:58:12.780Z,100.00
2023-01-08T09:03:15.331Z,100.00
2023-01-08T09:08:16.997Z,100.00
2023-01-08T09:13:18.649Z,100.00
2023-01-08T09:18:20.263Z,100.00
2023-01-08T09:23:21.856Z,100.00
2023-01-08T09:28:23.457Z,100.00
2023-01-08T09:33:25.066Z,100.00
2023-01-08T09:38:29.556Z,100.00
2023-01-08T09:43:35.285Z,100.00
2023-01-08T09:48:39.404Z,100.00
2023-01-08T09:53:43.236Z,100.00
2023-01-08T09:58:54.512Z,100.00
2023-01-08T10:04:04.481Z,100.00
2023-01-08T10:09:08.920Z,95.44
2023-01-08T10:14:27.078Z,95.07
2023-01-08T10:19:29.017Z,92.03
2023-01-08T10:24:32.694Z,86.27
2023-01-08T10:29:34.307Z,83.00
2023-01-08T10:34:49.311Z,81.67
2023-01-08T10:39:52.518Z,82.13
2023-01-08T10:45:07.669Z,80.04
2023-01-08T10:50:22.575Z,79.42
2023-01-08T10:55:27.081Z,78.98
2023-01-08T11:00:33.611Z,77.91
2023-01-08T11:05:37.740Z,77.60
2023-01-08T11:10:39.463Z,76.51
2023-01-08T11:15:41.866Z,76.21
2023-01-08T11:20:44.010Z,75.97
2023-01-08T11:26:02.709Z,76.70
2023-01-08T11:31:36.963Z,75.86
2023-01-08T11:36:49.016Z,75.84
2023-01-08T11:41:53.278Z,75.86
2023-01-08T11:47:13.367Z,75.95
2023-01-08T11:52:23.117Z,79.56
2023-01-08T11:57:46.359Z,81.45
2023-01-08T12:02:56.872Z,82.34
2023-01-08T12:08:12.722Z,79.92
2023-01-08T12:13:32.767Z,78.78
2023-01-08T12:19:07.988Z,77.97
2023-01-08T12:24:29.514Z,75.41
2023-01-08T12:29:31.072Z,73.72
2023-01-08T12:35:00.452Z,74.52
2023-01-08T12:40:18.958Z,74.79
2023-01-08T12:45:27.909Z,74.32
2023-01-08T12:50:49.842Z,74.96
2023-01-08T12:56:01.034Z,75.20
2023-01-08T13:01:26.034Z,74.91
2023-01-08T13:06:27.932Z,75.16
2023-01-08T13:11:33.211Z,75.50
2023-01-08T13:16:40.318Z,75.75
2023-01-08T13:21:50.499Z,75.97
2023-01-08T13:26:52.821Z,76.60
2023-01-08T13:31:54.632Z,76.93
2023-01-08T13:37:00.484Z,77.61
2023-01-08T13:42:17.575Z,77.27
2023-01-08T13:47:31.956Z,78.04
2023-01-08T13:52:41.257Z,78.56
2023-01-08T13:57:48.104Z,80.22
2023-01-08T14:02:55.018Z,82.11
2023-01-08T14:07:59.064Z,84.25
2023-01-08T14:13:08.987Z,86.00
2023-01-08T14:18:13.613Z,87.21
2023-01-08T14:23:23.437Z,87.86
2023-01-08T14:28:25.023Z,88.41
2023-01-08T14:33:33.958Z,89.61
2023-01-08T14:38:36.181Z,89.87
2023-01-08T14:43:47.128Z,90.69
2023-01-08T14:48:49.556Z,91.89
2023-01-08T14:53:56.608Z,92.79
2023-01-08T14:58:59.054Z,91.97
2023-01-08T15:04:27.298Z,92.26
2023-01-08T15:09:34.380Z,91.28
2023-01-08T15:14:37.153Z,89.73
2023-01-08T15:19:48.386Z,88.79
2023-01-08T15:24:58.389Z,87.11
2023-01-08T15:30:00.966Z,87.49
2023-01-08T15:35:14.240Z,85.67
2023-01-08T15:40:15.842Z,86.15
2023-01-08T15:45:20.370Z,84.74
2023-01-08T15:50:22.297Z,85.89
2023-01-08T15:55:25.020Z,86.33
2023-01-08T16:00:26.830Z,86.06
2023-01-08T16:05:29.471Z,84.88
2023-01-08T16:10:32.058Z,84.36
2023-01-08T16:15:33.691Z,84.64
2023-01-08T16:20:35.542Z,84.50
2023-01-08T16:25:39.816Z,83.87
2023-01-08T16:30:42.677Z,84.28
2023-01-08T16:35:44.286Z,84.79
2023-01-08T16:40:45.886Z,85.06
2023-01-08T16:45:48.406Z,85.42
2023-01-08T16:50:50.082Z,85.95
2023-01-08T16:55:51.668Z,85.97
2023-01-08T17:00:53.373Z,86.91
2023-01-08T17:06:00.157Z,87.12
2023-01-08T17:11:06.958Z,87.01
2023-01-08T17:16:11.354Z,87.69
2023-01-08T17:21:14.499Z,87.91
2023-01-08T17:26:20.003Z,88.79
2023-01-08T17:31:21.721Z,88.80
2023-01-08T17:36:26.564Z,88.32
2023-01-08T17:41:46.478Z,88.60
2023-01-08T17:46:48.170Z,89.81
2023-01-08T17:51:50.325Z,91.10
2023-01-08T17:56:53.619Z,91.10
2023-01-08T18:01:55.379Z,91.90
2023-01-08T18:06:57.053Z,91.65
2023-01-08T18:11:58.880Z,92.43
2023-01-08T18:17:00.494Z,92.52
2023-01-08T18:22:02.101Z,92.99
2023-01-08T18:27:04.056Z,92.16
2023-01-08T18:32:06.029Z,93.08
2023-01-08T18:37:07.706Z,93.83
2023-01-08T18:42:28.006Z,93.99
2023-01-08T18:47:30.081Z,96.19
2023-01-08T18:52:31.739Z,97.78
2023-01-08T18:57:33.385Z,98.71
2023-01-08T19:02:35.084Z,100.00
2023-01-08T19:07:36.834Z,96.81
2023-01-08T19:12:39.264Z,95.44
2023-01-08T19:17:40.871Z,94.84
2023-01-08T19:22:42.477Z,95.31
2023-01-08T19:27:44.254Z,95.88
2023-01-08T19:32:48.941Z,97.17
2023-01-08T19:37:50.587Z,98.96
2023-01-08T19:43:10.638Z,100.00
2023-01-08T19:48:12.285Z,100.00
2023-01-08T19:53:14.780Z,100.00
2023-01-08T19:58:18.641Z,100.00
2023-01-08T20:03:29.514Z,100.00
2023-01-08T20:08:31.873Z,100.00
2023-01-08T20:13:36.104Z,100.00
2023-01-08T20:18:38.528Z,100.00
2023-01-08T20:23:40.658Z,100.00
2023-01-08T20:28:44.288Z,100.00
2023-01-08T20:33:46.400Z,100.00
2023-01-08T20:38:52.751Z,100.00
2023-01-08T20:43:57.493Z,100.00
2023-01-08T20:49:03.598Z,100.00
2023-01-08T20:54:08.455Z,100.00
2023-01-08T20:59:10.881Z,100.00
2023-01-08T21:04:12.652Z,100.00
2023-01-08T21:09:16.606Z,100.00
2023-01-08T21:14:18.264Z,100.00
2023-01-08T21:19:19.886Z,100.00
2023-01-08T21:24:21.555Z,100.00
2023-01-08T21:29:23.624Z,100.00
2023-01-08T21:34:26.078Z,100.00
2023-01-08T21:39:27.860Z,100.00
2023-01-08T21:44:48.027Z,100.00
2023-01-08T21:49:50.158Z,100.00
2023-01-08T21:54:52.623Z,100.00
2023-01-08T21:59:54.578Z,100.00
2023-01-08T22:04:56.591Z,100.00
2023-01-08T22:10:00.544Z,100.00
2023-01-08T22:15:02.205Z,100.00
2023-01-08T22:20:06.739Z,100.00
2023-01-08T22:25:09.267Z,100.00
2023-01-08T22:30:11.370Z,100.00
2023-01-08T22:35:13.040Z,100.00
2023-01-08T22:40:14.694Z,100.00
2023-01-08T22:45:16.360Z,100.00
2023-01-08T22:50:18.047Z,100.00
2023-01-08T22:55:19.766Z,100.00
2023-01-08T23:00:21.590Z,100.00
2023-01-08T23:05:23.231Z,100.00
2023-01-08T23:10:24.849Z,100.00
2023-01-08T23:15:26.499Z,100.00
2023-01-08T23:20:28.159Z,100.00
2023-01-08T23:25:31.991Z,100.00
2023-01-08T23:30:33.736Z,100.00
2023-01-08T23:35:35.498Z,100.00
2023-01-08T23:40:37.169Z,100.00
2023-01-08T23:45:39.287Z,100.00
2023-01-08T23:50:40.898Z,100.00
2023-01-08T23:55:42.517Z,100.00
